Airfield :
LOGIN :

Register | Disclaimer

   EN    FR    IT 

 










Legend :    VFR   Marginal VFR   IFR   Intensive IFR   Very Intensive IFR
Visi :
Ceiling :
>= 8 km
>= 3000ft
5 to 8 km
1000 to 3000 ft
1500m to 5 km
500 to 1000 ft
800 to 1500m
200 to 500 ft
< 800m
< 200 ft
Symbols :   Thunderstorms  Fog  Heavy snow  Heavy precipitations  Wind > 20 kt
SIGMETs :     Misc.  Thunderstorms  Icing  Turbulence  Mountain Waves  Volcanic Ashes






- Airport Elevation : 341 ft


EPMO - Modlin

CURRENT METAR :
  • 311630Z 04011KT CAVOK 21/07 Q1015

EXPIRED METARs :
  • 311600Z 03014KT CAVOK 21/07 Q1015
  • 311530Z 03010KT CAVOK 20/08 Q1015
  • 311500Z 03012KT CAVOK 20/08 Q1015
  • 311430Z 02012KT CAVOK 20/09 Q1014
  • 311400Z 03011KT CAVOK 20/09 Q1014

TAF TAF EPMO
Valid from the 31 at 12:00 until the 01 at 12:00 UTC


311130Z 3112/0112 01015KT 9999 BKN038
TEMPO 3112/3117 02020G31KT



MET'MAP, your aeronautical weather chart ! - Copyright ORBIFLY December 2007 - Disclaimer

ORBIFLY MET'MAP TEAM :

Programming & Development : Alexandra Zaïnal
Concept & original design : Baudouin d'Aumeries
Assistance for programming : Marc-Olivier Méhu
Technical & hardware support : Manuel Goepfert

Contact : metmap@orbifly.com




SOURCES & CREDITS :

   NOAA